sensor_id;sensor_type;location;lat;lon;timestamp;pressure;altitude;pressure_sealevel;temperature;humidity
11523;BME280;40093;43.224;27.910;2023-03-04T00:02:14;100615.53;;;8.72;100.00
11523;BME280;40093;43.224;27.910;2023-03-04T00:04:41;100606.72;;;8.63;100.00
11523;BME280;40093;43.224;27.910;2023-03-04T00:07:08;100605.56;;;8.64;100.00
11523;BME280;40093;43.224;27.910;2023-03-04T00:09:35;100617.03;;;8.69;100.00
11523;BME280;40093;43.224;27.910;2023-03-04T00:12:02;100609.09;;;8.64;100.00
11523;BME280;40093;43.224;27.910;2023-03-04T00:14:32;100617.47;;;8.52;100.00
11523;BME280;40093;43.224;27.910;2023-03-04T00:16:58;100610.81;;;8.53;100.00
11523;BME280;40093;43.224;27.910;2023-03-04T00:19:29;100621.84;;;8.57;100.00
11523;BME280;40093;43.224;27.910;2023-03-04T00:21:56;100619.69;;;8.66;100.00
11523;BME280;40093;43.224;27.910;2023-03-04T00:24:23;100624.59;;;8.38;100.00
11523;BME280;40093;43.224;27.910;2023-03-04T00:26:50;100626.78;;;8.48;100.00
11523;BME280;40093;43.224;27.910;2023-03-04T00:29:17;100615.50;;;8.53;100.00
11523;BME280;40093;43.224;27.910;2023-03-04T00:31:44;100622.75;;;8.61;100.00
11523;BME280;40093;43.224;27.910;2023-03-04T00:34:11;100629.72;;;8.58;100.00
11523;BME280;40093;43.224;27.910;2023-03-04T00:36:39;100637.69;;;8.63;100.00
11523;BME280;40093;43.224;27.910;2023-03-04T00:39:08;100635.56;;;8.57;100.00
11523;BME280;40093;43.224;27.910;2023-03-04T00:41:35;100631.31;;;8.59;100.00
11523;BME280;40093;43.224;27.910;2023-03-04T00:44:03;100626.22;;;8.58;100.00
11523;BME280;40093;43.224;27.910;2023-03-04T00:46:30;100621.94;;;8.60;100.00
11523;BME280;40093;43.224;27.910;2023-03-04T00:48:56;100626.34;;;8.65;100.00
11523;BME280;40093;43.224;27.910;2023-03-04T00:51:23;100616.44;;;8.60;100.00
11523;BME280;40093;43.224;27.910;2023-03-04T00:53:52;100620.22;;;8.52;100.00
11523;BME280;40093;43.224;27.910;2023-03-04T00:56:18;100599.91;;;8.57;100.00
11523;BME280;40093;43.224;27.910;2023-03-04T00:58:45;100609.81;;;8.42;100.00
11523;BME280;40093;43.224;27.910;2023-03-04T01:01:12;100606.00;;;8.47;100.00
11523;BME280;40093;43.224;27.910;2023-03-04T01:03:39;100602.78;;;8.45;100.00
11523;BME280;40093;43.224;27.910;2023-03-04T01:06:07;100602.34;;;8.43;100.00
11523;BME280;40093;43.224;27.910;2023-03-04T01:08:34;100600.13;;;8.48;100.00
11523;BME280;40093;43.224;27.910;2023-03-04T01:11:02;100599.03;;;8.53;100.00
11523;BME280;40093;43.224;27.910;2023-03-04T01:13:29;100597.03;;;8.50;100.00
11523;BME280;40093;43.224;27.910;2023-03-04T01:15:56;100595.16;;;8.54;100.00
11523;BME280;40093;43.224;27.910;2023-03-04T01:18:23;100594.41;;;8.57;100.00
11523;BME280;40093;43.224;27.910;2023-03-04T01:20:50;100604.19;;;8.54;100.00
11523;BME280;40093;43.224;27.910;2023-03-04T01:23:17;100594.00;;;8.55;100.00
11523;BME280;40093;43.224;27.910;2023-03-04T01:25:44;100593.66;;;8.56;100.00
11523;BME280;40093;43.224;27.910;2023-03-04T01:28:12;100584.03;;;8.47;100.00
11523;BME280;40093;43.224;27.910;2023-03-04T01:30:39;100596.00;;;8.39;100.00
11523;BME280;40093;43.224;27.910;2023-03-04T01:33:06;100590.53;;;8.39;100.00
11523;BME280;40093;43.224;27.910;2023-03-04T01:35:33;100599.91;;;8.38;100.00
11523;BME280;40093;43.224;27.910;2023-03-04T01:38:00;100588.28;;;8.44;100.00
11523;BME280;40093;43.224;27.910;2023-03-04T01:40:27;100585.63;;;8.48;100.00
11523;BME280;40093;43.224;27.910;2023-03-04T01:42:54;100581.31;;;8.47;100.00
11523;BME280;40093;43.224;27.910;2023-03-04T01:45:22;100580.91;;;8.29;100.00
11523;BME280;40093;43.224;27.910;2023-03-04T01:47:50;100588.34;;;8.29;100.00
11523;BME280;40093;43.224;27.910;2023-03-04T01:50:21;100585.75;;;8.36;100.00
11523;BME280;40093;43.224;27.910;2023-03-04T01:52:49;100577.09;;;8.34;100.00
11523;BME280;40093;43.224;27.910;2023-03-04T01:55:18;100569.88;;;8.45;100.00
11523;BME280;40093;43.224;27.910;2023-03-04T01:57:45;100581.09;;;8.55;100.00
11523;BME280;40093;43.224;27.910;2023-03-04T02:00:26;100564.31;;;8.60;100.00
11523;BME280;40093;43.224;27.910;2023-03-04T02:02:57;100572.63;;;8.64;100.00
11523;BME280;40093;43.224;27.910;2023-03-04T02:05:25;100566.41;;;8.67;100.00
11523;BME280;40093;43.224;27.910;2023-03-04T02:07:54;100570.41;;;8.69;100.00
11523;BME280;40093;43.224;27.910;2023-03-04T02:10:21;100565.06;;;8.76;100.00
11523;BME280;40093;43.224;27.910;2023-03-04T02:12:49;100567.38;;;8.74;100.00
11523;BME280;40093;43.224;27.910;2023-03-04T02:15:16;100565.84;;;8.77;100.00
11523;BME280;40093;43.224;27.910;2023-03-04T02:17:44;100575.38;;;8.83;100.00
11523;BME280;40093;43.224;27.910;2023-03-04T02:20:22;100569.88;;;8.83;100.00
11523;BME280;40093;43.224;27.910;2023-03-04T02:22:57;100564.81;;;8.85;100.00
11523;BME280;40093;43.224;27.910;2023-03-04T02:25:30;100564.97;;;8.73;100.00
11523;BME280;40093;43.224;27.910;2023-03-04T02:28:00;100567.38;;;8.74;100.00
11523;BME280;40093;43.224;27.910;2023-03-04T02:30:27;100564.19;;;8.72;100.00
11523;BME280;40093;43.224;27.910;2023-03-04T02:32:54;100560.31;;;8.73;100.00
11523;BME280;40093;43.224;27.910;2023-03-04T02:35:21;100561.94;;;8.78;100.00
11523;BME280;40093;43.224;27.910;2023-03-04T02:37:48;100559.00;;;8.86;100.00
11523;BME280;40093;43.224;27.910;2023-03-04T02:40:20;100565.56;;;8.82;100.00
11523;BME280;40093;43.224;27.910;2023-03-04T02:42:49;100551.41;;;8.80;100.00
11523;BME280;40093;43.224;27.910;2023-03-04T02:45:38;100572.31;;;8.88;100.00
11523;BME280;40093;43.224;27.910;2023-03-04T02:48:06;100575.16;;;8.91;100.00
11523;BME280;40093;43.224;27.910;2023-03-04T02:50:36;100583.69;;;8.86;100.00
11523;BME280;40093;43.224;27.910;2023-03-04T02:53:03;100580.56;;;8.88;100.00
11523;BME280;40093;43.224;27.910;2023-03-04T02:55:31;100573.22;;;8.73;100.00
11523;BME280;40093;43.224;27.910;2023-03-04T02:57:58;100586.50;;;8.71;100.00
11523;BME280;40093;43.224;27.910;2023-03-04T03:00:26;100567.31;;;8.71;100.00
11523;BME280;40093;43.224;27.910;2023-03-04T03:02:55;100591.63;;;8.72;100.00
11523;BME280;40093;43.224;27.910;2023-03-04T03:05:23;100592.06;;;8.55;100.00
11523;BME280;40093;43.224;27.910;2023-03-04T03:07:51;100587.94;;;8.65;100.00
11523;BME280;40093;43.224;27.910;2023-03-04T03:10:18;100590.41;;;8.70;100.00
11523;BME280;40093;43.224;27.910;2023-03-04T03:12:45;100591.31;;;8.58;100.00
11523;BME280;40093;43.224;27.910;2023-03-04T03:15:12;100583.41;;;8.53;100.00
11523;BME280;40093;43.224;27.910;2023-03-04T03:17:40;100588.06;;;8.53;100.00
11523;BME280;40093;43.224;27.910;2023-03-04T03:20:10;100593.00;;;8.63;100.00
11523;BME280;40093;43.224;27.910;2023-03-04T03:22:38;100594.22;;;8.65;100.00
11523;BME280;40093;43.224;27.910;2023-03-04T03:25:06;100589.31;;;8.74;100.00
11523;BME280;40093;43.224;27.910;2023-03-04T03:27:33;100598.75;;;8.77;100.00
11523;BME280;40093;43.224;27.910;2023-03-04T03:30:00;100600.81;;;8.80;100.00
11523;BME280;40093;43.224;27.910;2023-03-04T03:32:27;100596.16;;;8.84;100.00
11523;BME280;40093;43.224;27.910;2023-03-04T03:34:54;100585.28;;;8.87;100.00
11523;BME280;40093;43.224;27.910;2023-03-04T03:37:23;100596.31;;;8.91;100.00
11523;BME280;40093;43.224;27.910;2023-03-04T03:39:49;100592.19;;;8.81;100.00
11523;BME280;40093;43.224;27.910;2023-03-04T03:42:16;100584.84;;;8.85;100.00
11523;BME280;40093;43.224;27.910;2023-03-04T03:44:43;100586.28;;;8.79;100.00
11523;BME280;40093;43.224;27.910;2023-03-04T03:47:10;100590.19;;;8.78;100.00
11523;BME280;40093;43.224;27.910;2023-03-04T03:49:38;100581.44;;;8.73;100.00
11523;BME280;40093;43.224;27.910;2023-03-04T03:52:05;100587.78;;;8.77;100.00
11523;BME280;40093;43.224;27.910;2023-03-04T03:54:35;100582.81;;;8.82;100.00
11523;BME280;40093;43.224;27.910;2023-03-04T03:57:02;100589.09;;;8.64;100.00
11523;BME280;40093;43.224;27.910;2023-03-04T03:59:29;100594.72;;;8.71;100.00
11523;BME280;40093;43.224;27.910;2023-03-04T04:01:56;100592.19;;;8.81;100.00
11523;BME280;40093;43.224;27.910;2023-03-04T04:04:23;100588.75;;;8.84;100.00
11523;BME280;40093;43.224;27.910;2023-03-04T04:06:50;100584.13;;;8.88;100.00
11523;BME280;40093;43.224;27.910;2023-03-04T04:09:17;100588.09;;;8.91;100.00
11523;BME280;40093;43.224;27.910;2023-03-04T04:11:45;100587.78;;;8.96;100.00
11523;BME280;40093;43.224;27.910;2023-03-04T04:14:12;100592.41;;;8.92;100.00
11523;BME280;40093;43.224;27.910;2023-03-04T04:16:40;100598.41;;;8.97;100.00
11523;BME280;40093;43.224;27.910;2023-03-04T04:19:06;100597.31;;;8.83;100.00
11523;BME280;40093;43.224;27.910;2023-03-04T04:21:33;100597.63;;;8.59;100.00
11523;BME280;40093;43.224;27.910;2023-03-04T04:24:00;100600.78;;;8.61;100.00
11523;BME280;40093;43.224;27.910;2023-03-04T04:26:27;100602.03;;;8.63;100.00
11523;BME280;40093;43.224;27.910;2023-03-04T04:28:55;100601.31;;;8.66;100.00
11523;BME280;40093;43.224;27.910;2023-03-04T04:31:22;100595.72;;;8.63;100.00
11523;BME280;40093;43.224;27.910;2023-03-04T04:33:49;100597.06;;;8.69;100.00
11523;BME280;40093;43.224;27.910;2023-03-04T04:36:16;100597.91;;;8.73;100.00
11523;BME280;40093;43.224;27.910;2023-03-04T04:38:43;100604.31;;;8.80;100.00
11523;BME280;40093;43.224;27.910;2023-03-04T04:41:18;100599.00;;;8.87;100.00
11523;BME280;40093;43.224;27.910;2023-03-04T04:43:46;100604.31;;;8.80;100.00
11523;BME280;40093;43.224;27.910;2023-03-04T04:46:15;100613.56;;;8.72;100.00
11523;BME280;40093;43.224;27.910;2023-03-04T04:48:43;100608.31;;;8.83;100.00
11523;BME280;40093;43.224;27.910;2023-03-04T04:51:10;100618.84;;;8.81;100.00
11523;BME280;40093;43.224;27.910;2023-03-04T04:53:37;100626.66;;;8.79;100.00
11523;BME280;40093;43.224;27.910;2023-03-04T04:56:09;100625.78;;;8.75;100.00
11523;BME280;40093;43.224;27.910;2023-03-04T04:58:36;100627.78;;;8.78;100.00
11523;BME280;40093;43.224;27.910;2023-03-04T05:01:04;100629.88;;;8.65;100.00
11523;BME280;40093;43.224;27.910;2023-03-04T05:03:34;100639.94;;;8.58;100.00
11523;BME280;40093;43.224;27.910;2023-03-04T05:06:02;100645.47;;;8.61;100.00
11523;BME280;40093;43.224;27.910;2023-03-04T05:08:29;100638.25;;;8.53;100.00
11523;BME280;40093;43.224;27.910;2023-03-04T05:10:56;100645.66;;;8.53;100.00
11523;BME280;40093;43.224;27.910;2023-03-04T05:13:23;100652.53;;;8.43;100.00
11523;BME280;40093;43.224;27.910;2023-03-04T05:15:51;100658.00;;;8.43;100.00
11523;BME280;40093;43.224;27.910;2023-03-04T05:18:18;100663.06;;;8.41;100.00
11523;BME280;40093;43.224;27.910;2023-03-04T05:20:50;100650.72;;;8.51;100.00
11523;BME280;40093;43.224;27.910;2023-03-04T05:23:18;100656.38;;;8.58;100.00
11523;BME280;40093;43.224;27.910;2023-03-04T05:25:45;100657.06;;;8.55;100.00
11523;BME280;40093;43.224;27.910;2023-03-04T05:28:12;100663.28;;;8.52;100.00
11523;BME280;40093;43.224;27.910;2023-03-04T05:30:40;100666.94;;;8.40;100.00
11523;BME280;40093;43.224;27.910;2023-03-04T05:33:08;100669.41;;;8.45;100.00
11523;BME280;40093;43.224;27.910;2023-03-04T05:35:35;100674.69;;;8.54;100.00
11523;BME280;40093;43.224;27.910;2023-03-04T05:38:05;100671.50;;;8.52;100.00
11523;BME280;40093;43.224;27.910;2023-03-04T05:40:33;100666.72;;;8.64;100.00
11523;BME280;40093;43.224;27.910;2023-03-04T05:42:59;100663.59;;;8.66;100.00
11523;BME280;40093;43.224;27.910;2023-03-04T05:45:26;100660.59;;;8.71;100.00
11523;BME280;40093;43.224;27.910;2023-03-04T05:47:53;100668.44;;;8.72;100.00
11523;BME280;40093;43.224;27.910;2023-03-04T05:50:22;100665.50;;;8.81;100.00
11523;BME280;40093;43.224;27.910;2023-03-04T05:52:49;100666.34;;;8.85;100.00
11523;BME280;40093;43.224;27.910;2023-03-04T05:55:17;100664.63;;;8.96;100.00
11523;BME280;40093;43.224;27.910;2023-03-04T05:57:45;100666.34;;;8.85;100.00
11523;BME280;40093;43.224;27.910;2023-03-04T06:00:14;100663.97;;;8.83;100.00
11523;BME280;40093;43.224;27.910;2023-03-04T06:02:42;100667.03;;;8.97;100.00
11523;BME280;40093;43.224;27.910;2023-03-04T06:05:10;100668.78;;;9.05;100.00
11523;BME280;40093;43.224;27.910;2023-03-04T06:07:37;100662.91;;;9.07;100.00
11523;BME280;40093;43.224;27.910;2023-03-04T06:10:05;100663.78;;;9.11;100.00
11523;BME280;40093;43.224;27.910;2023-03-04T06:12:34;100672.13;;;8.99;100.00
11523;BME280;40093;43.224;27.910;2023-03-04T06:15:01;100675.47;;;9.08;100.00
11523;BME280;40093;43.224;27.910;2023-03-04T06:17:28;100669.13;;;9.04;100.00
11523;BME280;40093;43.224;27.910;2023-03-04T06:19:55;100668.88;;;9.12;100.00
11523;BME280;40093;43.224;27.910;2023-03-04T06:22:22;100670.13;;;9.15;100.00
11523;BME280;40093;43.224;27.910;2023-03-04T06:24:49;100662.75;;;9.19;100.00
11523;BME280;40093;43.224;27.910;2023-03-04T06:27:15;100658.72;;;9.13;100.00
11523;BME280;40093;43.224;27.910;2023-03-04T06:29:44;100663.13;;;9.17;100.00
11523;BME280;40093;43.224;27.910;2023-03-04T06:32:11;100667.06;;;9.20;100.00
11523;BME280;40093;43.224;27.910;2023-03-04T06:34:37;100660.31;;;8.95;100.00
11523;BME280;40093;43.224;27.910;2023-03-04T06:37:04;100662.38;;;8.82;100.00
11523;BME280;40093;43.224;27.910;2023-03-04T06:39:31;100658.63;;;8.90;100.00
11523;BME280;40093;43.224;27.910;2023-03-04T06:41:58;100655.41;;;9.04;100.00
11523;BME280;40093;43.224;27.910;2023-03-04T06:44:25;100648.00;;;9.08;100.00
11523;BME280;40093;43.224;27.910;2023-03-04T06:46:53;100647.31;;;9.11;100.00
11523;BME280;40093;43.224;27.910;2023-03-04T06:49:20;100627.50;;;9.02;100.00
11523;BME280;40093;43.224;27.910;2023-03-04T06:51:47;100640.19;;;9.10;100.00
11523;BME280;40093;43.224;27.910;2023-03-04T06:54:14;100640.44;;;9.20;100.00
11523;BME280;40093;43.224;27.910;2023-03-04T06:56:41;100637.59;;;9.36;100.00
11523;BME280;40093;43.224;27.910;2023-03-04T06:59:08;100635.34;;;9.22;100.00
11523;BME280;40093;43.224;27.910;2023-03-04T07:01:36;100635.13;;;9.31;100.00
11523;BME280;40093;43.224;27.910;2023-03-04T07:04:04;100633.38;;;9.42;100.00
11523;BME280;40093;43.224;27.910;2023-03-04T07:06:32;100632.63;;;9.64;100.00
11523;BME280;40093;43.224;27.910;2023-03-04T07:08:59;100621.44;;;9.76;100.00
11523;BME280;40093;43.224;27.910;2023-03-04T07:11:26;100617.13;;;9.78;100.00
11523;BME280;40093;43.224;27.910;2023-03-04T07:13:52;100622.75;;;9.85;100.00
11523;BME280;40093;43.224;27.910;2023-03-04T07:16:21;100623.09;;;9.80;100.00
11523;BME280;40093;43.224;27.910;2023-03-04T07:18:48;100623.56;;;9.85;100.00
11523;BME280;40093;43.224;27.910;2023-03-04T07:21:17;100624.59;;;9.77;100.00
11523;BME280;40093;43.224;27.910;2023-03-04T07:23:44;100623.31;;;9.72;100.00
11523;BME280;40093;43.224;27.910;2023-03-04T07:26:11;100619.53;;;9.79;100.00
11523;BME280;40093;43.224;27.910;2023-03-04T07:28:39;100619.66;;;9.86;100.00
11523;BME280;40093;43.224;27.910;2023-03-04T07:31:08;100618.81;;;10.05;100.00
11523;BME280;40093;43.224;27.910;2023-03-04T07:33:36;100616.19;;;10.15;100.00
11523;BME280;40093;43.224;27.910;2023-03-04T07:36:02;100616.50;;;10.36;100.00
11523;BME280;40093;43.224;27.910;2023-03-04T07:38:31;100612.44;;;10.27;100.00
11523;BME280;40093;43.224;27.910;2023-03-04T07:40:58;100600.91;;;10.44;100.00
11523;BME280;40093;43.224;27.910;2023-03-04T07:43:25;100618.69;;;10.50;100.00
11523;BME280;40093;43.224;27.910;2023-03-04T07:45:57;100615.34;;;10.37;100.00
11523;BME280;40093;43.224;27.910;2023-03-04T07:48:24;100622.00;;;10.33;100.00
11523;BME280;40093;43.224;27.910;2023-03-04T07:51:02;100618.97;;;10.71;100.00
11523;BME280;40093;43.224;27.910;2023-03-04T07:53:33;100616.09;;;10.93;100.00
11523;BME280;40093;43.224;27.910;2023-03-04T07:56:00;100616.88;;;11.27;100.00
11523;BME280;40093;43.224;27.910;2023-03-04T07:58:27;100614.16;;;11.30;100.00
11523;BME280;40093;43.224;27.910;2023-03-04T08:00:54;100616.91;;;11.30;100.00
11523;BME280;40093;43.224;27.910;2023-03-04T08:03:21;100610.69;;;11.37;100.00
11523;BME280;40093;43.224;27.910;2023-03-04T08:05:48;100606.06;;;11.48;100.00
11523;BME280;40093;43.224;27.910;2023-03-04T08:08:15;100605.06;;;11.26;100.00
11523;BME280;40093;43.224;27.910;2023-03-04T08:10:43;100604.44;;;11.43;100.00
11523;BME280;40093;43.224;27.910;2023-03-04T08:13:10;100608.16;;;11.21;100.00
11523;BME280;40093;43.224;27.910;2023-03-04T08:15:39;100596.91;;;11.37;100.00
11523;BME280;40093;43.224;27.910;2023-03-04T08:18:07;100604.72;;;11.68;100.00
11523;BME280;40093;43.224;27.910;2023-03-04T08:20:34;100601.75;;;11.50;100.00
11523;BME280;40093;43.224;27.910;2023-03-04T08:23:00;100599.16;;;11.24;100.00
11523;BME280;40093;43.224;27.910;2023-03-04T08:25:27;100598.69;;;11.55;100.00
11523;BME280;40093;43.224;27.910;2023-03-04T08:27:56;100609.66;;;11.95;100.00
11523;BME280;40093;43.224;27.910;2023-03-04T08:30:22;100602.44;;;11.77;100.00
11523;BME280;40093;43.224;27.910;2023-03-04T08:32:49;100611.25;;;11.93;100.00
11523;BME280;40093;43.224;27.910;2023-03-04T08:35:16;100607.31;;;11.97;100.00
11523;BME280;40093;43.224;27.910;2023-03-04T08:37:43;100601.88;;;12.04;100.00
11523;BME280;40093;43.224;27.910;2023-03-04T08:40:12;100606.22;;;12.09;100.00
11523;BME280;40093;43.224;27.910;2023-03-04T08:42:39;100607.50;;;12.22;100.00
11523;BME280;40093;43.224;27.910;2023-03-04T08:45:08;100609.16;;;12.33;100.00
11523;BME280;40093;43.224;27.910;2023-03-04T08:47:36;100603.38;;;12.52;100.00
11523;BME280;40093;43.224;27.910;2023-03-04T08:50:04;100606.81;;;12.35;100.00
11523;BME280;40093;43.224;27.910;2023-03-04T08:52:31;100595.56;;;12.07;100.00
11523;BME280;40093;43.224;27.910;2023-03-04T08:54:58;100596.38;;;12.08;100.00
11523;BME280;40093;43.224;27.910;2023-03-04T08:57:25;100591.13;;;11.92;100.00
11523;BME280;40093;43.224;27.910;2023-03-04T08:59:52;100588.78;;;11.94;100.00
11523;BME280;40093;43.224;27.910;2023-03-04T09:02:20;100588.44;;;11.99;100.00
11523;BME280;40093;43.224;27.910;2023-03-04T09:04:47;100589.19;;;11.96;100.00
11523;BME280;40093;43.224;27.910;2023-03-04T09:07:14;100585.22;;;11.90;100.00
11523;BME280;40093;43.224;27.910;2023-03-04T09:09:41;100584.09;;;11.98;100.00
11523;BME280;40093;43.224;27.910;2023-03-04T09:12:07;100575.13;;;12.12;100.00
11523;BME280;40093;43.224;27.910;2023-03-04T09:14:34;100579.97;;;12.29;100.00
11523;BME280;40093;43.224;27.910;2023-03-04T09:17:01;100572.19;;;12.48;100.00
11523;BME280;40093;43.224;27.910;2023-03-04T09:19:30;100575.28;;;12.36;100.00
11523;BME280;40093;43.224;27.910;2023-03-04T09:21:57;100575.03;;;12.62;100.00
11523;BME280;40093;43.224;27.910;2023-03-04T09:24:25;100576.66;;;12.73;100.00
11523;BME280;40093;43.224;27.910;2023-03-04T09:26:53;100571.50;;;12.72;100.00
11523;BME280;40093;43.224;27.910;2023-03-04T09:29:21;100567.53;;;12.66;100.00
11523;BME280;40093;43.224;27.910;2023-03-04T09:31:48;100551.41;;;12.82;100.00
11523;BME280;40093;43.224;27.910;2023-03-04T09:34:15;100558.88;;;12.67;100.00
11523;BME280;40093;43.224;27.910;2023-03-04T09:36:44;100560.88;;;12.74;100.00
11523;BME280;40093;43.224;27.910;2023-03-04T09:39:11;100554.13;;;12.64;98.42
11523;BME280;40093;43.224;27.910;2023-03-04T09:41:41;100558.78;;;12.46;97.80
11523;BME280;40093;43.224;27.910;2023-03-04T09:44:17;100548.47;;;12.37;98.85
11523;BME280;40093;43.224;27.910;2023-03-04T09:46:47;100548.56;;;12.61;100.00
11523;BME280;40093;43.224;27.910;2023-03-04T09:49:15;100545.53;;;12.87;100.00
11523;BME280;40093;43.224;27.910;2023-03-04T09:51:51;100543.25;;;13.10;100.00
11523;BME280;40093;43.224;27.910;2023-03-04T09:54:39;100538.56;;;13.42;100.00
11523;BME280;40093;43.224;27.910;2023-03-04T09:57:19;100530.66;;;13.47;98.43
11523;BME280;40093;43.224;27.910;2023-03-04T09:59:54;100532.63;;;13.22;100.00
11523;BME280;40093;43.224;27.910;2023-03-04T10:02:33;100527.34;;;12.79;100.00
11523;BME280;40093;43.224;27.910;2023-03-04T10:05:05;100528.16;;;12.90;100.00
11523;BME280;40093;43.224;27.910;2023-03-04T10:07:37;100527.00;;;12.91;100.00
11523;BME280;40093;43.224;27.910;2023-03-04T10:10:12;100515.59;;;13.03;100.00
11523;BME280;40093;43.224;27.910;2023-03-04T10:12:42;100527.84;;;12.95;99.10
11523;BME280;40093;43.224;27.910;2023-03-04T10:15:21;100514.44;;;13.00;99.76
11523;BME280;40093;43.224;27.910;2023-03-04T10:17:55;100513.25;;;13.05;97.46
11523;BME280;40093;43.224;27.910;2023-03-04T10:20:28;100517.22;;;13.18;94.65
11523;BME280;40093;43.224;27.910;2023-03-04T10:23:07;100518.81;;;13.19;92.28
11523;BME280;40093;43.224;27.910;2023-03-04T10:25:37;100516.03;;;13.12;91.41
11523;BME280;40093;43.224;27.910;2023-03-04T10:28:10;100520.38;;;13.20;92.90
11523;BME280;40093;43.224;27.910;2023-03-04T10:30:45;100516.84;;;13.44;92.90
11523;BME280;40093;43.224;27.910;2023-03-04T10:33:15;100513.31;;;13.47;90.64
11523;BME280;40093;43.224;27.910;2023-03-04T10:35:45;100513.56;;;12.93;94.05
11523;BME280;40093;43.224;27.910;2023-03-04T10:38:15;100508.53;;;13.09;94.53
11523;BME280;40093;43.224;27.910;2023-03-04T10:40:44;100500.25;;;13.30;93.73
11523;BME280;40093;43.224;27.910;2023-03-04T10:43:14;100499.84;;;13.63;93.25
11523;BME280;40093;43.224;27.910;2023-03-04T10:45:41;100460.75;;;13.50;89.82
11523;BME280;40093;43.224;27.910;2023-03-04T10:48:18;100476.94;;;13.66;91.08
11523;BME280;40093;43.224;27.910;2023-03-04T10:50:45;100478.13;;;13.65;90.49
11523;BME280;40093;43.224;27.910;2023-03-04T10:53:30;100466.25;;;13.82;91.01
11523;BME280;40093;43.224;27.910;2023-03-04T10:55:59;100457.53;;;13.90;89.83
11523;BME280;40093;43.224;27.910;2023-03-04T10:58:27;100450.00;;;13.98;91.43
11523;BME280;40093;43.224;27.910;2023-03-04T11:01:02;100449.97;;;14.12;89.01
11523;BME280;40093;43.224;27.910;2023-03-04T11:03:32;100441.66;;;14.26;87.18
11523;BME280;40093;43.224;27.910;2023-03-04T11:06:18;100432.97;;;14.13;86.89
11523;BME280;40093;43.224;27.910;2023-03-04T11:08:54;100435.72;;;14.10;87.36
11523;BME280;40093;43.224;27.910;2023-03-04T11:11:23;100430.25;;;13.96;88.40
11523;BME280;40093;43.224;27.910;2023-03-04T11:13:53;100417.25;;;13.86;88.21
11523;BME280;40093;43.224;27.910;2023-03-04T11:16:26;100408.97;;;13.79;88.08
11523;BME280;40093;43.224;27.910;2023-03-04T11:18:57;100418.06;;;13.83;89.07
11523;BME280;40093;43.224;27.910;2023-03-04T11:21:28;100403.78;;;13.91;87.88
11523;BME280;40093;43.224;27.910;2023-03-04T11:23:59;100408.50;;;13.94;88.29
11523;BME280;40093;43.224;27.910;2023-03-04T11:26:30;100404.16;;;14.00;86.96
11523;BME280;40093;43.224;27.910;2023-03-04T11:29:06;100397.03;;;14.03;87.03
11523;BME280;40093;43.224;27.910;2023-03-04T11:31:38;100394.72;;;13.84;87.72
11523;BME280;40093;43.224;27.910;2023-03-04T11:34:12;100387.63;;;13.76;87.92
11523;BME280;40093;43.224;27.910;2023-03-04T11:36:51;100375.00;;;13.75;88.13
11523;BME280;40093;43.224;27.910;2023-03-04T11:39:29;100376.94;;;13.85;87.60
11523;BME280;40093;43.224;27.910;2023-03-04T11:42:00;100368.63;;;13.92;86.63
11523;BME280;40093;43.224;27.910;2023-03-04T11:44:29;100371.03;;;13.76;86.65
11523;BME280;40093;43.224;27.910;2023-03-04T11:47:11;100375.09;;;13.47;87.89
11523;BME280;40093;43.224;27.910;2023-03-04T11:49:54;100367.19;;;13.52;89.39
11523;BME280;40093;43.224;27.910;2023-03-04T11:52:32;100363.19;;;13.57;89.41
11523;BME280;40093;43.224;27.910;2023-03-04T11:55:22;100368.72;;;13.57;88.00
11523;BME280;40093;43.224;27.910;2023-03-04T11:57:58;100364.75;;;13.61;87.59
11523;BME280;40093;43.224;27.910;2023-03-04T12:00:35;100369.88;;;13.70;87.27
11523;BME280;40093;43.224;27.910;2023-03-04T12:06:11;100365.44;;;14.00;87.09
11523;BME280;40093;43.224;27.910;2023-03-04T12:08:59;100368.56;;;14.02;86.58
11523;BME280;40093;43.224;27.910;2023-03-04T12:11:38;100369.00;;;13.94;85.96
11523;BME280;40093;43.224;27.910;2023-03-04T12:14:18;100368.28;;;13.76;86.42
11523;BME280;40093;43.224;27.910;2023-03-04T12:17:23;100374.25;;;13.57;87.84
11523;BME280;40093;43.224;27.910;2023-03-04T12:20:02;100369.47;;;13.68;85.85
11523;BME280;40093;43.224;27.910;2023-03-04T12:22:43;100378.19;;;13.70;85.70
11523;BME280;40093;43.224;27.910;2023-03-04T12:25:31;100375.75;;;13.86;86.05
11523;BME280;40093;43.224;27.910;2023-03-04T12:28:16;100371.81;;;13.83;84.96
11523;BME280;40093;43.224;27.910;2023-03-04T12:30:56;100372.63;;;13.77;85.61
11523;BME280;40093;43.224;27.910;2023-03-04T12:33:33;100378.56;;;13.72;85.44
11523;BME280;40093;43.224;27.910;2023-03-04T12:36:15;100380.91;;;13.84;88.06
11523;BME280;40093;43.224;27.910;2023-03-04T12:38:57;100376.56;;;13.83;89.67
11523;BME280;40093;43.224;27.910;2023-03-04T12:41:29;100369.00;;;13.94;90.01
11523;BME280;40093;43.224;27.910;2023-03-04T12:44:09;100374.94;;;13.96;91.28
11523;BME280;40093;43.224;27.910;2023-03-04T12:46:47;100359.53;;;13.91;91.11
11523;BME280;40093;43.224;27.910;2023-03-04T12:49:33;100367.44;;;13.86;91.92
11523;BME280;40093;43.224;27.910;2023-03-04T12:52:13;100357.28;;;13.62;92.48
11523;BME280;40093;43.224;27.910;2023-03-04T12:54:44;100355.75;;;13.40;93.99